createdAt,value
2018-08-04T00:00:53.867Z,7.30
2018-08-04T00:03:22.532Z,7.17
2018-08-04T00:05:51.155Z,7.27
2018-08-04T00:08:19.696Z,7.23
2018-08-04T00:10:48.320Z,7.20
2018-08-04T00:13:16.977Z,8.00
2018-08-04T00:15:45.535Z,7.60
2018-08-04T00:18:14.144Z,7.47
2018-08-04T00:20:42.932Z,7.43
2018-08-04T00:23:11.555Z,7.27
2018-08-04T00:25:40.117Z,7.43
2018-08-04T00:28:08.803Z,7.73
2018-08-04T00:30:37.471Z,7.13
2018-08-04T00:33:06.173Z,8.40
2018-08-04T00:35:34.749Z,7.83
2018-08-04T00:38:03.293Z,7.93
2018-08-04T00:40:31.858Z,7.70
2018-08-04T00:43:00.527Z,7.73
2018-08-04T00:45:29.192Z,7.80
2018-08-04T00:47:57.765Z,7.30
2018-08-04T00:50:26.427Z,7.93
2018-08-04T00:52:55.003Z,7.40
2018-08-04T00:55:23.651Z,7.27
2018-08-04T00:57:52.263Z,8.27
2018-08-04T01:00:20.917Z,7.23
2018-08-04T01:02:49.472Z,7.43
2018-08-04T01:05:18.129Z,7.63
2018-08-04T01:07:46.785Z,7.63
2018-08-04T01:10:15.467Z,7.90
2018-08-04T01:12:44.040Z,8.20
2018-08-04T01:15:12.691Z,7.70
2018-08-04T01:17:41.401Z,7.83
2018-08-04T01:20:10.022Z,8.00
2018-08-04T01:22:38.677Z,7.93
2018-08-04T01:25:07.908Z,7.40
2018-08-04T01:27:36.608Z,7.63
2018-08-04T01:30:05.994Z,8.23
2018-08-04T01:32:34.747Z,8.30
2018-08-04T01:35:03.497Z,8.40
2018-08-04T01:37:32.152Z,7.83
2018-08-04T01:40:00.919Z,8.03
2018-08-04T01:42:29.490Z,8.50
2018-08-04T01:44:58.184Z,7.87
2018-08-04T01:47:26.875Z,7.93
2018-08-04T01:49:55.482Z,7.70
2018-08-04T01:52:24.165Z,7.83
2018-08-04T01:54:53.277Z,8.17
2018-08-04T01:57:21.875Z,7.57
2018-08-04T01:59:50.581Z,7.70
2018-08-04T02:02:19.116Z,8.20
2018-08-04T02:04:47.791Z,7.80
2018-08-04T02:07:16.531Z,8.10
2018-08-04T02:09:45.080Z,7.90
2018-08-04T02:12:13.743Z,7.73
2018-08-04T02:14:42.362Z,7.77
2018-08-04T02:17:11.671Z,8.10
2018-08-04T02:19:40.337Z,8.10
2018-08-04T02:22:08.980Z,7.93
2018-08-04T02:24:37.539Z,8.23
2018-08-04T02:27:06.252Z,7.50
2018-08-04T02:29:34.937Z,8.20
2018-08-04T02:32:03.714Z,8.20
2018-08-04T02:34:32.417Z,8.67
2018-08-04T02:37:01.056Z,8.60
2018-08-04T02:39:29.782Z,8.30
2018-08-04T02:41:58.548Z,8.50
2018-08-04T02:44:27.221Z,8.63
2018-08-04T02:46:55.990Z,7.97
2018-08-04T02:49:24.629Z,7.83
2018-08-04T02:51:53.417Z,8.33
2018-08-04T02:54:22.068Z,8.17
2018-08-04T02:56:50.723Z,7.90
2018-08-04T02:59:19.351Z,8.00
2018-08-04T03:01:47.974Z,8.37
2018-08-04T03:04:16.604Z,8.27
2018-08-04T03:06:45.201Z,7.83
2018-08-04T03:09:13.881Z,8.37
2018-08-04T03:11:42.519Z,8.87
2018-08-04T03:14:11.163Z,7.73
2018-08-04T03:16:39.919Z,9.50
2018-08-04T03:19:08.695Z,8.77
2018-08-04T03:21:37.365Z,8.97
2018-08-04T03:24:05.993Z,8.70
2018-08-04T03:26:34.678Z,9.17
2018-08-04T03:29:03.444Z,9.37
2018-08-04T03:31:32.078Z,9.00
2018-08-04T03:34:00.747Z,8.87
2018-08-04T03:36:29.358Z,9.03
2018-08-04T03:38:57.981Z,9.10
2018-08-04T03:41:26.687Z,8.60
2018-08-04T03:43:55.367Z,9.73
2018-08-04T03:46:24.053Z,9.80
2018-08-04T03:48:52.852Z,8.83
2018-08-04T03:51:21.608Z,9.33
2018-08-04T03:53:50.215Z,8.47
2018-08-04T03:56:18.825Z,8.73
2018-08-04T03:58:47.514Z,8.87
2018-08-04T04:01:16.089Z,8.63
2018-08-04T04:03:44.848Z,9.37
2018-08-04T04:06:13.569Z,8.60
2018-08-04T04:08:42.251Z,8.90
2018-08-04T04:11:10.905Z,9.10
2018-08-04T04:13:39.645Z,8.63
2018-08-04T04:16:08.400Z,8.80
2018-08-04T04:18:37.056Z,8.80
2018-08-04T04:21:05.762Z,9.77
2018-08-04T04:23:34.430Z,8.80
2018-08-04T04:26:03.194Z,9.13
2018-08-04T04:28:31.985Z,9.40
2018-08-04T04:31:00.717Z,8.83
2018-08-04T04:33:29.503Z,8.50
2018-08-04T04:35:58.125Z,8.30
2018-08-04T04:38:26.843Z,8.60
2018-08-04T04:40:55.504Z,8.80
2018-08-04T04:43:24.229Z,9.33
2018-08-04T04:45:52.898Z,9.13
2018-08-04T04:48:21.579Z,9.20
2018-08-04T04:50:50.256Z,7.97
2018-08-04T04:53:19.038Z,8.57
2018-08-04T04:55:47.672Z,8.73
2018-08-04T04:58:16.273Z,8.37
2018-08-04T05:00:45.030Z,8.70
2018-08-04T05:03:13.677Z,8.57
2018-08-04T05:05:42.374Z,9.17
2018-08-04T05:08:11.044Z,8.90
2018-08-04T05:10:39.681Z,8.30
2018-08-04T05:13:08.570Z,7.77
2018-08-04T05:15:37.221Z,8.47
2018-08-04T05:18:05.990Z,8.30
2018-08-04T05:20:34.627Z,8.20
2018-08-04T05:23:03.318Z,8.30
2018-08-04T05:25:32.042Z,8.23
2018-08-04T05:28:00.817Z,8.53
2018-08-04T05:30:29.469Z,7.53
2018-08-04T05:32:58.148Z,8.07
2018-08-04T05:35:26.830Z,8.47
2018-08-04T05:37:55.492Z,8.43
2018-08-04T05:40:24.093Z,8.37
2018-08-04T05:42:52.770Z,8.27
2018-08-04T05:45:21.549Z,8.30
2018-08-04T05:47:50.229Z,8.40
2018-08-04T05:50:19.500Z,8.43
2018-08-04T05:52:48.245Z,7.97
2018-08-04T05:55:16.895Z,8.80
2018-08-04T05:57:45.589Z,8.00
2018-08-04T06:00:14.324Z,8.03
2018-08-04T06:02:43.019Z,7.83
2018-08-04T06:05:11.764Z,8.23
2018-08-04T06:07:40.393Z,8.20
2018-08-04T06:10:10.438Z,7.63
2018-08-04T06:12:39.402Z,7.60
2018-08-04T06:15:08.308Z,8.03
2018-08-04T06:17:37.121Z,8.10
2018-08-04T06:20:06.228Z,8.60
2018-08-04T06:22:35.017Z,8.00
2018-08-04T06:25:03.745Z,8.20
2018-08-04T06:27:32.409Z,7.60
2018-08-04T06:30:01.064Z,7.17
2018-08-04T06:32:29.656Z,7.90
2018-08-04T06:34:58.220Z,7.23
2018-08-04T06:37:26.887Z,7.60
2018-08-04T06:39:55.474Z,8.40
2018-08-04T06:42:24.061Z,7.40
2018-08-04T06:44:52.627Z,7.10
2018-08-04T06:47:21.451Z,8.10
2018-08-04T06:49:50.122Z,7.27
2018-08-04T06:52:18.759Z,7.97
2018-08-04T06:54:47.441Z,8.13
2018-08-04T06:57:16.099Z,7.57
2018-08-04T06:59:44.782Z,6.87
2018-08-04T07:02:13.361Z,7.97
2018-08-04T07:04:44.061Z,8.07
2018-08-04T07:07:12.796Z,7.73
2018-08-04T07:09:41.453Z,7.93
2018-08-04T07:12:10.002Z,7.70
2018-08-04T07:14:38.649Z,6.97
2018-08-04T07:17:07.265Z,6.87
2018-08-04T07:19:35.875Z,7.40
2018-08-04T07:22:04.563Z,7.27
2018-08-04T07:24:33.195Z,7.37
2018-08-04T07:27:01.803Z,7.43
2018-08-04T07:29:30.437Z,7.03
2018-08-04T07:31:59.085Z,6.23
2018-08-04T07:34:27.676Z,7.10
2018-08-04T07:36:56.463Z,6.90
2018-08-04T07:39:25.027Z,6.83
2018-08-04T07:41:53.645Z,7.40
2018-08-04T07:44:22.297Z,7.13
2018-08-04T07:46:50.981Z,7.30
2018-08-04T07:49:19.746Z,6.90
2018-08-04T07:51:48.392Z,7.03
2018-08-04T07:54:17.028Z,6.70
2018-08-04T07:56:45.683Z,6.93
2018-08-04T07:59:14.265Z,6.97
2018-08-04T08:01:42.875Z,7.60
2018-08-04T08:04:11.457Z,7.20
2018-08-04T08:06:40.196Z,6.93
2018-08-04T08:09:09.317Z,6.57
2018-08-04T08:11:37.917Z,7.40
2018-08-04T08:14:06.489Z,6.67
2018-08-04T08:16:35.120Z,6.90
2018-08-04T08:19:03.689Z,7.47
2018-08-04T08:21:32.296Z,6.93
2018-08-04T08:24:00.859Z,7.60
2018-08-04T08:26:29.387Z,7.53
2018-08-04T08:28:58.053Z,7.37
2018-08-04T08:31:26.839Z,7.70
2018-08-04T08:33:55.451Z,7.77
2018-08-04T08:36:24.061Z,7.60
2018-08-04T08:38:52.695Z,7.57
2018-08-04T08:41:21.294Z,7.70
2018-08-04T08:43:50.209Z,8.37
2018-08-04T08:46:39.031Z,7.87
2018-08-04T08:49:07.704Z,7.70
2018-08-04T08:51:36.491Z,8.30
2018-08-04T08:54:05.203Z,7.90
2018-08-04T08:56:33.763Z,7.40
2018-08-04T08:59:02.569Z,8.60
2018-08-04T09:01:43.003Z,8.63
2018-08-04T09:04:11.559Z,7.80
2018-08-04T09:06:40.153Z,8.60
2018-08-04T09:09:10.046Z,7.83
2018-08-04T09:11:38.655Z,8.40
2018-08-04T09:14:07.333Z,8.73
2018-08-04T09:16:41.134Z,8.17
2018-08-04T09:19:09.774Z,8.67
2018-08-04T09:21:38.420Z,8.17
2018-08-04T09:24:07.105Z,8.27
2018-08-04T09:26:35.653Z,8.60
2018-08-04T09:29:04.277Z,8.20
2018-08-04T09:31:32.891Z,8.83
2018-08-04T09:34:01.484Z,8.37
2018-08-04T09:36:30.063Z,8.83
2018-08-04T09:38:58.676Z,9.00
2018-08-04T09:41:27.627Z,7.87
2018-08-04T09:43:56.391Z,8.27
2018-08-04T09:46:25.047Z,7.60
2018-08-04T09:48:53.697Z,8.40
2018-08-04T09:51:22.404Z,9.17
2018-08-04T09:53:51.154Z,9.53
2018-08-04T09:56:19.905Z,8.03
2018-08-04T09:58:54.169Z,8.10
2018-08-04T10:01:28.368Z,7.90
2018-08-04T10:03:57.173Z,8.03
2018-08-04T10:06:25.850Z,8.13
2018-08-04T10:08:54.693Z,7.83
2018-08-04T10:11:23.290Z,7.53
2018-08-04T10:13:51.915Z,8.00
2018-08-04T10:16:20.474Z,7.27
2018-08-04T10:18:49.061Z,7.90
2018-08-04T10:21:17.647Z,7.40
2018-08-04T10:23:46.549Z,8.08
2018-08-04T10:26:15.355Z,7.87
2018-08-04T10:28:44.031Z,8.00
2018-08-04T10:31:12.609Z,7.60
2018-08-04T10:33:41.411Z,7.67
2018-08-04T10:36:10.150Z,8.43
2018-08-04T10:38:38.805Z,8.08
2018-08-04T10:41:07.405Z,8.15
2018-08-04T10:43:36.104Z,7.87
2018-08-04T10:46:04.738Z,7.62
2018-08-04T10:48:33.516Z,7.53
2018-08-04T10:51:02.199Z,7.97
2018-08-04T10:53:30.790Z,7.58
2018-08-04T10:55:59.471Z,7.40
2018-08-04T10:58:28.264Z,7.50
2018-08-04T11:00:56.906Z,7.78
2018-08-04T11:03:25.829Z,7.35
2018-08-04T11:05:54.927Z,7.90
2018-08-04T11:08:23.480Z,8.13
2018-08-04T11:10:52.010Z,8.63
2018-08-04T11:13:20.607Z,8.70
2018-08-04T11:15:49.137Z,8.00
2018-08-04T11:18:17.765Z,7.63
2018-08-04T11:20:46.384Z,7.87
2018-08-04T11:23:14.977Z,7.90
2018-08-04T11:25:43.487Z,7.30
2018-08-04T11:28:12.048Z,7.67
2018-08-04T11:30:40.663Z,6.87
2018-08-04T11:33:09.245Z,8.13
2018-08-04T11:35:38.936Z,7.40
2018-08-04T11:38:07.528Z,7.10
2018-08-04T11:40:36.149Z,6.95
2018-08-04T11:43:04.753Z,6.55
2018-08-04T11:45:39.804Z,6.78
2018-08-04T11:48:08.354Z,5.78
2018-08-04T11:50:36.931Z,5.53
2018-08-04T11:53:05.978Z,6.20
2018-08-04T11:55:34.709Z,5.55
2018-08-04T11:58:03.297Z,5.55
2018-08-04T12:00:31.901Z,5.05
2018-08-04T12:03:00.500Z,5.05
2018-08-04T12:05:29.125Z,5.25
2018-08-04T12:07:58.465Z,5.37
2018-08-04T12:10:27.069Z,4.80
2018-08-04T12:12:55.792Z,5.60
2018-08-04T12:15:24.441Z,5.63
2018-08-04T12:17:52.939Z,6.43
2018-08-04T12:20:21.491Z,5.90
2018-08-04T12:22:50.046Z,6.00
2018-08-04T12:25:18.611Z,5.23
2018-08-04T12:27:47.191Z,4.83
2018-08-04T12:30:15.824Z,5.30
2018-08-04T12:32:44.445Z,5.70
2018-08-04T12:35:13.024Z,5.50
2018-08-04T12:37:41.649Z,5.87
2018-08-04T12:40:10.345Z,6.00
2018-08-04T12:42:38.948Z,5.83
2018-08-04T12:45:07.929Z,5.77
2018-08-04T12:47:36.486Z,5.70
2018-08-04T12:50:05.539Z,5.07
2018-08-04T12:52:34.167Z,5.60
2018-08-04T12:55:02.729Z,4.77
2018-08-04T12:57:31.387Z,5.10
2018-08-04T13:00:00.011Z,5.12
2018-08-04T13:02:28.750Z,4.70
2018-08-04T13:04:57.288Z,5.15
2018-08-04T13:07:25.877Z,4.87
2018-08-04T13:09:54.705Z,4.67
2018-08-04T13:12:23.295Z,4.60
2018-08-04T13:14:52.009Z,5.00
2018-08-04T13:17:20.975Z,5.17
2018-08-04T13:19:49.758Z,5.20
2018-08-04T13:22:18.360Z,4.92
2018-08-04T13:24:46.998Z,4.90
2018-08-04T13:27:15.599Z,5.42
2018-08-04T13:29:44.219Z,5.17
2018-08-04T13:32:12.794Z,4.90
2018-08-04T13:34:41.404Z,5.10
2018-08-04T13:37:10.121Z,4.70
2018-08-04T13:39:38.695Z,5.07
2018-08-04T13:42:07.493Z,4.17
2018-08-04T13:44:36.104Z,4.80
2018-08-04T13:47:04.744Z,4.80
2018-08-04T13:49:33.380Z,5.50
2018-08-04T13:52:01.872Z,5.70
2018-08-04T13:54:30.467Z,5.57
2018-08-04T13:56:59.118Z,5.35
2018-08-04T13:59:27.812Z,5.05
2018-08-04T14:01:56.406Z,5.60
2018-08-04T14:04:25.030Z,5.20
2018-08-04T14:06:53.578Z,5.12
2018-08-04T14:09:22.135Z,5.40
2018-08-04T14:11:50.748Z,5.10
2018-08-04T14:14:19.299Z,5.60
2018-08-04T14:16:47.975Z,4.92
2018-08-04T14:19:16.557Z,4.83
2018-08-04T14:21:45.177Z,5.47
2018-08-04T14:24:13.855Z,4.92
2018-08-04T14:26:42.575Z,5.30
2018-08-04T14:29:11.472Z,4.78
2018-08-04T14:31:40.339Z,4.67
2018-08-04T14:34:08.974Z,4.60
2018-08-04T14:36:37.569Z,4.60
2018-08-04T14:39:09.047Z,5.10
2018-08-04T14:41:37.708Z,4.50
2018-08-04T14:44:06.382Z,4.70
2018-08-04T14:46:35.053Z,4.65
2018-08-04T14:49:03.723Z,4.47
2018-08-04T14:51:32.466Z,4.47
2018-08-04T14:54:01.266Z,4.55
2018-08-04T14:56:30.904Z,4.80
2018-08-04T14:58:59.526Z,3.95
2018-08-04T15:01:28.091Z,4.20
2018-08-04T15:03:56.711Z,4.00
2018-08-04T15:06:25.280Z,4.67
2018-08-04T15:08:53.829Z,4.37
2018-08-04T15:11:22.517Z,4.30
2018-08-04T15:13:51.140Z,5.07
2018-08-04T15:16:19.720Z,4.87
2018-08-04T15:18:48.359Z,5.07
2018-08-04T15:21:16.976Z,4.23
2018-08-04T15:23:45.545Z,4.87
2018-08-04T15:26:14.100Z,4.30
2018-08-04T15:28:42.973Z,4.67
2018-08-04T15:31:11.507Z,4.50
2018-08-04T15:33:40.107Z,4.40
2018-08-04T15:36:08.701Z,5.12
2018-08-04T15:38:55.239Z,4.45
2018-08-04T15:41:23.781Z,4.33
2018-08-04T15:43:52.356Z,4.67
2018-08-04T15:46:20.940Z,5.12
2018-08-04T15:48:54.359Z,4.62
2018-08-04T15:51:22.922Z,5.10
2018-08-04T15:53:51.536Z,4.45
2018-08-04T15:56:20.103Z,4.58
2018-08-04T15:58:48.723Z,4.58
2018-08-04T16:01:17.273Z,4.42
2018-08-04T16:03:45.931Z,4.62
2018-08-04T16:06:14.525Z,4.70
2018-08-04T16:08:43.198Z,4.28
2018-08-04T16:14:23.433Z,4.60
2018-08-04T16:16:52.101Z,4.47
2018-08-04T16:19:20.743Z,4.78
2018-08-04T16:21:49.402Z,4.60
2018-08-04T16:24:18.024Z,4.28
2018-08-04T16:26:47.022Z,4.62
2018-08-04T16:29:15.754Z,4.40
2018-08-04T16:31:44.395Z,4.47
2018-08-04T16:34:12.909Z,4.58
2018-08-04T16:36:41.418Z,4.53
2018-08-04T16:39:10.681Z,4.60
2018-08-04T16:41:39.316Z,4.75
2018-08-04T16:44:07.904Z,4.72
2018-08-04T16:46:36.505Z,4.90
2018-08-04T16:49:05.115Z,4.80
2018-08-04T16:51:33.640Z,4.67
2018-08-04T16:56:55.160Z,4.78
2018-08-04T16:59:23.804Z,5.12
2018-08-04T17:01:52.339Z,4.78
2018-08-04T17:04:20.881Z,5.15
2018-08-04T17:06:49.415Z,5.33
2018-08-04T17:09:17.972Z,5.00
2018-08-04T17:11:46.527Z,5.10
2018-08-04T17:14:15.167Z,5.37
2018-08-04T17:16:43.695Z,4.60
2018-08-04T17:19:12.233Z,5.30
2018-08-04T17:21:40.753Z,5.08
2018-08-04T17:24:09.323Z,4.92
2018-08-04T17:26:37.941Z,4.90
2018-08-04T17:29:06.555Z,5.00
2018-08-04T17:31:35.121Z,5.03
2018-08-04T17:34:03.785Z,5.22
2018-08-04T17:36:32.351Z,5.60
2018-08-04T17:39:01.001Z,4.87
2018-08-04T17:41:29.638Z,6.00
2018-08-04T17:43:58.265Z,6.72
2018-08-04T17:46:26.891Z,6.25
2018-08-04T17:48:55.510Z,6.00
2018-08-04T17:51:24.174Z,6.00
2018-08-04T17:53:52.759Z,6.07
2018-08-04T17:56:21.332Z,6.37
2018-08-04T17:58:50.132Z,6.47
2018-08-04T18:01:18.794Z,7.43
2018-08-04T18:03:47.536Z,6.10
2018-08-04T18:06:16.197Z,5.30
2018-08-04T18:08:44.827Z,5.47
2018-08-04T18:11:13.538Z,5.70
2018-08-04T18:13:42.166Z,5.80
2018-08-04T18:16:17.074Z,5.37
2018-08-04T18:18:45.727Z,6.00
2018-08-04T18:21:14.355Z,6.17
2018-08-04T18:23:42.915Z,5.83
2018-08-04T18:26:11.555Z,6.27
2018-08-04T18:28:40.132Z,6.23
2018-08-04T18:31:08.715Z,6.10
2018-08-04T18:33:37.342Z,6.17
2018-08-04T18:36:06.659Z,5.87
2018-08-04T18:38:35.275Z,8.17
2018-08-04T18:41:03.905Z,6.63
2018-08-04T18:43:32.507Z,8.50
2018-08-04T18:46:01.139Z,6.77
2018-08-04T18:48:29.822Z,6.70
2018-08-04T18:50:58.457Z,7.47
2018-08-04T18:53:27.119Z,6.60
2018-08-04T18:55:55.845Z,6.47
2018-08-04T18:58:24.477Z,6.17
2018-08-04T19:00:53.111Z,6.47
2018-08-04T19:03:21.729Z,7.00
2018-08-04T19:05:50.370Z,7.30
2018-08-04T19:08:18.969Z,6.40
2018-08-04T19:10:47.642Z,6.50
2018-08-04T19:13:16.298Z,6.60
2018-08-04T19:15:45.045Z,6.53
2018-08-04T19:18:13.644Z,6.33
2018-08-04T19:20:42.316Z,7.33
2018-08-04T19:23:10.980Z,7.47
2018-08-04T19:25:39.784Z,7.00
2018-08-04T19:28:08.485Z,7.07
2018-08-04T19:30:37.094Z,8.20
2018-08-04T19:33:05.760Z,10.73
2018-08-04T19:35:34.391Z,8.37
2018-08-04T19:38:02.960Z,7.03
2018-08-04T19:40:31.521Z,6.80
2018-08-04T19:43:00.940Z,6.67
2018-08-04T19:45:29.582Z,7.00
2018-08-04T19:47:58.212Z,7.13
2018-08-04T19:50:26.889Z,7.60
2018-08-04T19:52:55.481Z,6.90
2018-08-04T19:55:24.081Z,7.20
2018-08-04T19:57:52.711Z,7.23
2018-08-04T20:00:21.349Z,7.63
2018-08-04T20:02:49.987Z,6.87
2018-08-04T20:05:18.565Z,7.30
2018-08-04T20:07:47.177Z,7.53
2018-08-04T20:10:15.728Z,7.27
2018-08-04T20:12:44.439Z,7.43
2018-08-04T20:15:13.027Z,7.00
2018-08-04T20:17:41.643Z,7.23
2018-08-04T20:20:10.280Z,7.20
2018-08-04T20:22:38.919Z,7.40
2018-08-04T20:25:07.666Z,7.03
2018-08-04T20:27:36.317Z,7.70
2018-08-04T20:30:05.013Z,8.00
2018-08-04T20:32:33.605Z,7.20
2018-08-04T20:35:02.303Z,8.07
2018-08-04T20:37:30.919Z,8.03
2018-08-04T20:39:59.519Z,7.80
2018-08-04T20:42:28.174Z,8.53
2018-08-04T20:44:56.705Z,7.40
2018-08-04T20:47:25.380Z,7.80
2018-08-04T20:49:54.049Z,8.10
2018-08-04T20:52:23.060Z,8.37
2018-08-04T20:54:51.637Z,6.90
2018-08-04T20:57:20.279Z,8.07
2018-08-04T20:59:48.891Z,7.90
2018-08-04T21:02:17.520Z,6.87
2018-08-04T21:04:46.175Z,7.60
2018-08-04T21:07:14.780Z,7.97
2018-08-04T21:09:43.373Z,7.67
2018-08-04T21:12:12.054Z,7.80
2018-08-04T21:14:40.631Z,7.97
2018-08-04T21:17:09.354Z,7.87
2018-08-04T21:19:37.964Z,7.90
2018-08-04T21:22:06.856Z,8.13
2018-08-04T21:24:35.449Z,7.77
2018-08-04T21:27:04.175Z,8.20
2018-08-04T21:29:32.870Z,7.80
2018-08-04T21:32:01.531Z,7.70
2018-08-04T21:34:30.088Z,7.40
2018-08-04T21:36:58.748Z,7.70
2018-08-04T21:39:27.462Z,7.57
2018-08-04T21:41:56.147Z,7.73
2018-08-04T21:44:24.870Z,8.30
2018-08-04T21:46:53.444Z,8.30
2018-08-04T21:49:22.113Z,8.23
2018-08-04T21:51:51.311Z,8.10
2018-08-04T21:54:20.390Z,7.67
2018-08-04T21:56:49.153Z,7.50
2018-08-04T21:59:17.921Z,6.97
2018-08-04T22:01:51.936Z,8.07
2018-08-04T22:04:20.573Z,7.43
2018-08-04T22:07:58.969Z,7.37
2018-08-04T22:10:28.083Z,7.70
2018-08-04T22:12:57.249Z,7.53
2018-08-04T22:15:25.933Z,7.53
2018-08-04T22:17:54.667Z,7.57
2018-08-04T22:20:23.861Z,7.87
2018-08-04T22:22:52.721Z,7.43
2018-08-04T22:25:29.552Z,7.93
2018-08-04T22:27:58.813Z,7.87
2018-08-04T22:30:27.473Z,7.83
2018-08-04T22:32:56.117Z,7.80
2018-08-04T22:35:24.715Z,7.67
2018-08-04T22:37:53.443Z,7.33
2018-08-04T22:40:22.341Z,6.73
2018-08-04T22:42:51.016Z,7.07
2018-08-04T22:45:58.252Z,7.40
2018-08-04T22:48:26.917Z,6.80
2018-08-04T22:50:55.841Z,7.40
2018-08-04T22:53:24.499Z,7.40
2018-08-04T22:55:53.146Z,7.20
2018-08-04T22:58:21.832Z,7.13
2018-08-04T23:00:50.780Z,7.10
2018-08-04T23:03:19.423Z,6.00
2018-08-04T23:05:48.117Z,6.43
2018-08-04T23:08:16.791Z,6.47
2018-08-04T23:10:45.557Z,6.83
2018-08-04T23:13:14.825Z,6.60
2018-08-04T23:15:43.703Z,6.37
2018-08-04T23:18:12.703Z,7.73
2018-08-04T23:20:41.746Z,6.53
2018-08-04T23:23:11.453Z,7.13
2018-08-04T23:25:40.075Z,7.60
2018-08-04T23:28:08.971Z,6.80
2018-08-04T23:30:37.625Z,6.43
2018-08-04T23:33:06.368Z,6.60
2018-08-04T23:35:35.109Z,6.57
2018-08-04T23:38:03.712Z,6.27
2018-08-04T23:40:32.295Z,6.63
2018-08-04T23:43:00.942Z,7.60
2018-08-04T23:45:29.676Z,7.50
2018-08-04T23:47:58.337Z,7.73
2018-08-04T23:50:26.969Z,7.07
2018-08-04T23:52:55.551Z,6.63
2018-08-04T23:55:24.296Z,6.53
2018-08-04T23:57:52.951Z,6.00
